createdAt,value
2019-03-27T00:22:46.611Z,28.10
2019-03-27T00:26:53.178Z,21.53
2019-03-27T00:30:59.404Z,24.73
2019-03-27T01:00:16.525Z,38.57
2019-03-27T01:37:22.621Z,37.37
2019-03-27T02:24:13.705Z,46.67
2019-03-27T02:28:25.207Z,41.30
2019-03-27T02:37:26.000Z,43.47
2019-03-27T02:41:46.874Z,47.07
2019-03-27T02:46:02.073Z,49.80
2019-03-27T02:55:13.268Z,44.73
2019-03-27T03:23:27.125Z,39.60
2019-03-27T03:27:42.956Z,41.33
2019-03-27T03:31:48.906Z,34.93
2019-03-27T03:36:03.140Z,31.20
2019-03-27T03:55:05.293Z,44.10
2019-03-27T04:28:07.945Z,43.30
2019-03-27T04:32:13.924Z,47.47
2019-03-27T04:36:19.780Z,44.30
2019-03-27T04:40:25.587Z,52.73
2019-03-27T04:48:57.918Z,68.30
2019-03-27T04:53:05.613Z,53.70
2019-03-27T04:57:18.909Z,56.53
2019-03-27T05:01:24.737Z,64.20
2019-03-27T05:05:30.628Z,58.33
2019-03-27T05:09:36.710Z,49.67
2019-03-27T05:13:46.319Z,65.10
2019-03-27T05:17:52.125Z,48.27
2019-03-27T05:21:57.964Z,69.33
2019-03-27T05:26:03.859Z,49.37
2019-03-27T05:30:10.269Z,58.33
2019-03-27T05:34:16.104Z,63.73
2019-03-27T05:38:24.834Z,59.67
2019-03-27T05:46:49.292Z,56.10
2019-03-27T05:50:55.026Z,56.63
2019-03-27T05:59:34.602Z,52.60
2019-03-27T06:03:40.295Z,64.40
2019-03-27T06:07:46.267Z,70.40
2019-03-27T06:12:04.081Z,76.20
2019-03-27T06:16:17.215Z,67.33
2019-03-27T06:20:23.371Z,67.37
2019-03-27T06:24:29.147Z,61.83
2019-03-27T06:28:37.978Z,72.20
2019-03-27T06:32:43.770Z,76.15
2019-03-27T06:36:49.604Z,67.27
2019-03-27T06:40:55.344Z,70.17
2019-03-27T06:54:03.869Z,64.67
2019-03-27T06:58:09.583Z,63.60
2019-03-27T07:02:17.116Z,58.03
2019-03-27T07:06:22.864Z,79.40
2019-03-27T07:10:28.647Z,86.23
2019-03-27T07:14:34.416Z,86.63
2019-03-27T07:18:40.709Z,89.10
2019-03-27T07:23:06.859Z,76.73
2019-03-27T07:27:14.071Z,71.70
2019-03-27T07:31:20.264Z,79.70
2019-03-27T07:35:26.110Z,63.93
2019-03-27T07:39:31.908Z,58.27
2019-03-27T07:43:37.674Z,65.60
2019-03-27T07:47:43.547Z,56.10
2019-03-27T07:51:49.320Z,60.23
2019-03-27T07:55:55.138Z,64.60
2019-03-27T08:00:01.351Z,46.27
2019-03-27T08:04:07.271Z,36.97
2019-03-27T08:12:31.124Z,33.10
2019-03-27T08:17:07.975Z,47.00
2019-03-27T08:21:17.422Z,72.73
2019-03-27T08:25:24.003Z,123.30
2019-03-27T08:29:31.171Z,29.00
2019-03-27T08:33:37.851Z,33.00
2019-03-27T08:37:45.355Z,25.10
2019-03-27T08:41:52.874Z,26.77
2019-03-27T08:45:58.690Z,33.40
2019-03-27T08:50:06.000Z,35.03
2019-03-27T08:54:11.885Z,27.30
2019-03-27T08:58:17.870Z,28.13
2019-03-27T09:02:23.575Z,18.10
2019-03-27T09:06:33.934Z,21.77
2019-03-27T09:10:42.836Z,27.30
2019-03-27T09:14:48.616Z,22.43
2019-03-27T09:18:54.401Z,23.50
2019-03-27T09:23:00.135Z,24.90
2019-03-27T09:27:05.886Z,19.77
2019-03-27T09:31:13.603Z,23.43
2019-03-27T09:35:21.000Z,21.50
2019-03-27T09:39:47.121Z,15.00
2019-03-27T09:43:53.232Z,20.97
2019-03-27T09:47:59.493Z,19.30
2019-03-27T09:52:05.745Z,21.60
2019-03-27T09:56:19.002Z,52.33
2019-03-27T10:04:56.139Z,33.50
2019-03-27T10:09:09.371Z,27.17
2019-03-27T10:13:35.445Z,24.87
2019-03-27T10:17:41.285Z,24.00
2019-03-27T10:21:47.086Z,19.10
2019-03-27T10:25:53.181Z,29.57
2019-03-27T10:29:58.998Z,22.60
2019-03-27T10:34:08.786Z,20.67
2019-03-27T10:38:14.994Z,27.90
2019-03-27T10:42:20.853Z,24.03
2019-03-27T10:46:26.622Z,20.83
2019-03-27T10:50:32.609Z,22.40
2019-03-27T10:54:38.432Z,30.43
2019-03-27T10:58:55.435Z,27.33
2019-03-27T11:03:34.474Z,23.03
2019-03-27T11:07:48.451Z,22.00
2019-03-27T11:11:54.334Z,26.17
2019-03-27T11:16:00.290Z,17.60
2019-03-27T11:20:38.041Z,24.70
2019-03-27T11:24:43.843Z,21.97
2019-03-27T11:28:49.591Z,18.53
2019-03-27T11:32:55.351Z,21.40
2019-03-27T11:37:01.981Z,28.07
2019-03-27T11:41:12.250Z,24.93
2019-03-27T11:45:23.162Z,56.17
2019-03-27T11:54:05.029Z,42.23
2019-03-27T11:58:13.474Z,23.33
2019-03-27T12:02:57.732Z,19.57
2019-03-27T12:07:03.812Z,15.43
2019-03-27T12:11:09.681Z,26.57
2019-03-27T12:15:35.745Z,37.33
2019-03-27T12:19:41.992Z,27.83
2019-03-27T12:23:47.813Z,80.77
2019-03-27T12:27:53.604Z,10.63
2019-03-27T12:31:59.350Z,10.33
2019-03-27T12:36:05.210Z,11.00
2019-03-27T12:40:12.056Z,24.73
2019-03-27T12:44:18.085Z,10.53
2019-03-27T12:48:24.782Z,19.33
2019-03-27T12:52:30.711Z,13.67
2019-03-27T12:56:36.562Z,16.17
2019-03-27T13:00:43.471Z,11.27
2019-03-27T13:04:50.991Z,12.43
2019-03-27T13:08:56.742Z,11.50
2019-03-27T13:13:02.554Z,9.83
2019-03-27T13:17:08.275Z,11.07
2019-03-27T13:21:25.722Z,13.47
2019-03-27T13:25:39.662Z,10.10
2019-03-27T13:29:47.424Z,13.87
2019-03-27T13:33:53.709Z,8.90
2019-03-27T13:37:59.684Z,12.50
2019-03-27T13:42:06.837Z,13.47
2019-03-27T13:46:13.004Z,14.23
2019-03-27T13:54:37.690Z,9.77
2019-03-27T13:59:08.498Z,9.03
2019-03-27T14:03:15.935Z,14.13
2019-03-27T14:07:21.771Z,12.60
2019-03-27T14:11:27.669Z,14.73
2019-03-27T14:15:33.528Z,10.30
2019-03-27T14:19:39.269Z,9.73
2019-03-27T14:23:45.096Z,11.67
2019-03-27T14:27:50.898Z,10.23
2019-03-27T14:31:56.646Z,13.90
2019-03-27T14:36:02.455Z,14.20
2019-03-27T14:44:48.804Z,9.67
2019-03-27T14:48:54.922Z,9.57
2019-03-27T14:53:00.725Z,11.70
2019-03-27T14:57:06.614Z,13.77
2019-03-27T15:01:12.750Z,11.90
2019-03-27T15:05:18.604Z,9.73
2019-03-27T15:09:24.373Z,9.57
2019-03-27T15:13:30.174Z,8.50
2019-03-27T15:17:36.025Z,13.23
2019-03-27T15:21:41.781Z,13.83
2019-03-27T15:25:48.292Z,9.70
2019-03-27T15:30:14.248Z,11.83
2019-03-27T15:34:42.957Z,10.23
2019-03-27T15:43:33.490Z,14.63
2019-03-27T15:52:11.887Z,12.67
2019-03-27T15:56:17.853Z,11.83
2019-03-27T16:00:23.682Z,13.60
2019-03-27T16:04:30.423Z,13.47
2019-03-27T16:08:36.891Z,13.27
2019-03-27T16:12:42.840Z,12.58
2019-03-27T16:17:01.571Z,9.57
2019-03-27T16:21:15.311Z,10.83
2019-03-27T16:25:21.064Z,12.90
2019-03-27T16:29:26.855Z,11.83
2019-03-27T16:33:32.683Z,11.73
2019-03-27T16:37:38.383Z,10.27
2019-03-27T16:41:44.157Z,12.53
2019-03-27T16:45:50.589Z,11.33
2019-03-27T16:49:56.481Z,9.20
2019-03-27T16:54:02.253Z,13.63
2019-03-27T16:58:08.077Z,14.37
2019-03-27T17:02:13.960Z,13.73
2019-03-27T17:06:19.971Z,12.93
2019-03-27T17:10:25.778Z,14.03
2019-03-27T17:14:31.683Z,12.23
2019-03-27T17:18:38.044Z,14.00
2019-03-27T17:22:43.889Z,14.13
2019-03-27T17:26:49.929Z,12.73
2019-03-27T17:30:57.259Z,15.93
2019-03-27T17:35:03.244Z,13.63
2019-03-27T17:39:09.877Z,13.63
2019-03-27T17:43:16.372Z,14.53
2019-03-27T17:47:22.225Z,14.13
2019-03-27T17:51:27.997Z,17.60
2019-03-27T17:55:34.050Z,12.83
2019-03-27T17:59:40.001Z,15.33
2019-03-27T18:04:25.400Z,14.20
2019-03-27T18:08:31.473Z,13.73
2019-03-27T18:12:37.250Z,18.03
2019-03-27T18:26:53.054Z,19.57
2019-03-27T18:30:59.041Z,14.97
2019-03-27T18:35:05.391Z,16.43
2019-03-27T18:44:26.999Z,15.70
2019-03-27T18:48:34.322Z,16.73
2019-03-27T18:52:40.176Z,18.17
2019-03-27T18:56:46.039Z,16.33
2019-03-27T19:00:51.936Z,16.63
2019-03-27T19:04:58.698Z,17.63
2019-03-27T19:09:16.912Z,16.87
2019-03-27T19:13:22.693Z,15.13
2019-03-27T19:17:28.584Z,17.67
2019-03-27T19:21:34.338Z,14.10
2019-03-27T19:25:54.285Z,17.50
2019-03-27T19:30:27.367Z,15.73
2019-03-27T19:38:51.515Z,19.20
2019-03-27T19:42:59.488Z,17.57
2019-03-27T19:47:05.486Z,18.83
2019-03-27T19:51:11.825Z,15.93
2019-03-27T19:55:20.829Z,20.27
2019-03-27T19:59:27.858Z,20.30
2019-03-27T20:03:34.809Z,17.60
2019-03-27T20:07:47.133Z,16.77
2019-03-27T20:11:53.636Z,18.67
2019-03-27T20:20:29.729Z,27.57
2019-03-27T20:24:41.219Z,20.73
2019-03-27T20:28:51.165Z,21.37
2019-03-27T20:32:57.095Z,20.03
2019-03-27T20:37:05.693Z,15.60
2019-03-27T20:41:12.066Z,17.27
2019-03-27T20:45:18.271Z,17.67
2019-03-27T20:49:26.529Z,17.67
2019-03-27T20:53:32.785Z,18.30
2019-03-27T20:57:39.311Z,19.10
2019-03-27T21:01:45.154Z,16.83
2019-03-27T21:05:52.044Z,19.03
2019-03-27T21:09:58.530Z,18.90
2019-03-27T21:14:04.285Z,19.73
2019-03-27T21:18:10.270Z,17.40
2019-03-27T21:22:16.649Z,26.67
2019-03-27T21:26:22.743Z,16.53
2019-03-27T21:30:30.512Z,19.50
2019-03-27T21:53:14.330Z,18.07
2019-03-27T22:07:08.974Z,16.77
2019-03-27T22:21:19.089Z,20.83
2019-03-27T22:26:29.240Z,17.50
2019-03-27T22:40:20.556Z,20.27
2019-03-27T22:44:42.088Z,21.13
2019-03-27T22:49:03.381Z,21.97
2019-03-27T22:53:20.465Z,21.30
2019-03-27T22:57:42.508Z,20.70
2019-03-27T23:11:11.635Z,22.90
2019-03-27T23:29:34.018Z,21.00
2019-03-27T23:43:11.154Z,21.80
2019-03-27T23:47:24.995Z,20.30
2019-03-27T23:52:13.592Z,20.00
2019-03-27T23:56:41.891Z,21.93
